createdAt,value
2018-12-04T00:01:51.255Z,8.13
2018-12-04T00:04:19.692Z,8.13
2018-12-04T00:06:48.256Z,7.00
2018-12-04T00:09:16.741Z,7.00
2018-12-04T00:11:45.281Z,7.40
2018-12-04T00:14:13.779Z,6.27
2018-12-04T00:16:42.264Z,4.60
2018-12-04T00:19:10.719Z,4.80
2018-12-04T00:21:39.328Z,5.43
2018-12-04T00:24:07.891Z,5.40
2018-12-04T00:26:36.354Z,4.50
2018-12-04T00:29:04.936Z,4.43
2018-12-04T00:31:33.401Z,3.47
2018-12-04T00:34:01.896Z,4.23
2018-12-04T00:36:30.384Z,2.93
2018-12-04T00:38:58.846Z,1.97
2018-12-04T00:41:27.315Z,2.13
2018-12-04T00:43:55.841Z,3.00
2018-12-04T00:46:24.377Z,2.33
2018-12-04T00:48:52.909Z,3.57
2018-12-04T00:51:21.389Z,2.90
2018-12-04T00:53:49.927Z,3.13
2018-12-04T00:56:18.418Z,3.70
2018-12-04T00:58:46.875Z,3.37
2018-12-04T01:01:15.331Z,2.80
2018-12-04T01:03:43.794Z,3.57
2018-12-04T01:06:12.246Z,4.07
2018-12-04T01:08:40.748Z,4.33
2018-12-04T01:11:09.223Z,4.30
2018-12-04T01:13:37.716Z,4.20
2018-12-04T01:16:06.249Z,4.53
2018-12-04T01:18:34.869Z,3.50
2018-12-04T01:21:03.374Z,3.40
2018-12-04T01:23:31.840Z,4.93
2018-12-04T01:26:00.315Z,4.00
2018-12-04T01:28:28.811Z,4.70
2018-12-04T01:30:57.299Z,5.00
2018-12-04T01:33:25.741Z,4.50
2018-12-04T01:35:54.331Z,4.63
2018-12-04T01:38:22.812Z,4.70
2018-12-04T01:40:51.321Z,4.37
2018-12-04T01:43:19.784Z,4.93
2018-12-04T01:45:48.339Z,4.80
2018-12-04T01:48:16.778Z,3.50
2018-12-04T01:50:45.236Z,3.90
2018-12-04T01:53:13.748Z,4.47
2018-12-04T01:55:42.296Z,3.50
2018-12-04T01:58:10.756Z,3.43
2018-12-04T02:00:39.421Z,3.00
2018-12-04T02:03:07.928Z,2.80
2018-12-04T02:05:36.378Z,3.30
2018-12-04T02:08:04.853Z,2.53
2018-12-04T02:10:33.296Z,2.83
2018-12-04T02:13:01.750Z,3.90
2018-12-04T02:15:30.206Z,2.97
2018-12-04T02:17:58.723Z,2.83
2018-12-04T02:20:27.212Z,3.57
2018-12-04T02:22:55.686Z,3.50
2018-12-04T02:25:24.268Z,2.03
2018-12-04T02:27:52.724Z,3.30
2018-12-04T02:30:21.228Z,2.77
2018-12-04T02:32:49.689Z,2.53
2018-12-04T02:35:18.217Z,2.30
2018-12-04T02:37:46.696Z,2.13
2018-12-04T02:40:15.233Z,3.60
2018-12-04T02:42:43.682Z,2.67
2018-12-04T02:45:12.137Z,2.00
2018-12-04T02:47:40.660Z,2.40
2018-12-04T02:50:09.129Z,1.97
2018-12-04T02:52:37.667Z,2.27
2018-12-04T02:55:06.188Z,2.90
2018-12-04T02:57:34.777Z,2.70
2018-12-04T03:00:03.392Z,2.00
2018-12-04T03:02:31.872Z,2.40
2018-12-04T03:05:00.525Z,2.50
2018-12-04T03:07:28.984Z,3.80
2018-12-04T03:09:57.503Z,3.67
2018-12-04T03:12:26.017Z,3.80
2018-12-04T03:14:54.473Z,3.70
2018-12-04T03:17:22.972Z,3.47
2018-12-04T03:19:51.431Z,3.40
2018-12-04T03:22:19.908Z,4.10
2018-12-04T03:24:48.352Z,3.60
2018-12-04T03:27:16.836Z,4.13
2018-12-04T03:29:45.295Z,4.50
2018-12-04T03:32:13.814Z,4.50
2018-12-04T03:34:42.414Z,5.00
2018-12-04T03:37:10.927Z,5.80
2018-12-04T03:39:39.397Z,5.03
2018-12-04T03:42:08.123Z,6.60
2018-12-04T03:44:36.608Z,6.50
2018-12-04T03:47:05.142Z,5.57
2018-12-04T03:49:33.614Z,5.90
2018-12-04T03:52:02.064Z,5.93
2018-12-04T03:54:30.569Z,7.00
2018-12-04T03:56:59.076Z,8.57
2018-12-04T03:59:27.655Z,7.40
2018-12-04T04:01:56.152Z,6.93
2018-12-04T04:04:24.629Z,9.47
2018-12-04T04:06:53.076Z,7.23
2018-12-04T04:09:21.555Z,8.70
2018-12-04T04:11:50.025Z,7.40
2018-12-04T04:14:18.530Z,7.60
2018-12-04T04:16:47.000Z,6.73
2018-12-04T04:19:15.490Z,8.47
2018-12-04T04:21:43.944Z,7.77
2018-12-04T04:24:12.443Z,6.80
2018-12-04T04:26:40.931Z,6.07
2018-12-04T04:29:09.420Z,4.90
2018-12-04T04:31:37.957Z,6.60
2018-12-04T04:34:06.444Z,5.67
2018-12-04T04:36:34.910Z,6.40
2018-12-04T04:39:05.157Z,3.77
2018-12-04T04:41:33.653Z,4.10
2018-12-04T04:44:02.149Z,4.47
2018-12-04T04:46:30.628Z,6.10
2018-12-04T04:48:59.081Z,7.00
2018-12-04T04:51:27.568Z,6.70
2018-12-04T04:53:56.054Z,7.03
2018-12-04T04:56:24.592Z,8.07
2018-12-04T04:58:53.122Z,6.20
2018-12-04T05:01:21.657Z,7.57
2018-12-04T05:03:56.988Z,8.03
2018-12-04T05:06:25.476Z,6.00
2018-12-04T05:08:54.095Z,8.40
2018-12-04T05:11:22.559Z,6.70
2018-12-04T05:13:51.052Z,6.30
2018-12-04T05:16:19.532Z,7.90
2018-12-04T05:18:48.016Z,8.13
2018-12-04T05:21:16.548Z,8.40
2018-12-04T05:23:45.050Z,8.40
2018-12-04T05:26:13.580Z,7.10
2018-12-04T05:28:42.081Z,8.73
2018-12-04T05:31:10.593Z,7.70
2018-12-04T05:33:39.061Z,7.13
2018-12-04T05:36:07.612Z,7.07
2018-12-04T05:38:36.076Z,6.77
2018-12-04T05:41:04.687Z,8.30
2018-12-04T05:43:33.230Z,10.90
2018-12-04T05:46:01.733Z,7.03
2018-12-04T05:48:30.201Z,5.67
2018-12-04T05:50:58.648Z,11.87
2018-12-04T05:53:37.815Z,20.27
2018-12-04T05:56:09.603Z,9.77
2018-12-04T05:58:38.115Z,8.40
2018-12-04T06:01:06.576Z,11.20
2018-12-04T06:03:35.063Z,8.60
2018-12-04T06:06:03.507Z,11.37
2018-12-04T06:08:31.980Z,14.17
2018-12-04T06:11:00.405Z,7.73
2018-12-04T06:13:28.876Z,7.87
2018-12-04T06:15:57.479Z,8.77
2018-12-04T06:18:26.010Z,7.67
2018-12-04T06:20:54.461Z,10.07
2018-12-04T06:23:23.050Z,9.03
2018-12-04T06:25:51.526Z,9.77
2018-12-04T06:28:20.065Z,10.70
2018-12-04T06:30:48.511Z,10.00
2018-12-04T06:33:17.021Z,9.80
2018-12-04T06:35:45.499Z,9.60
2018-12-04T06:38:14.000Z,10.10
2018-12-04T06:40:42.500Z,11.23
2018-12-04T06:43:11.131Z,8.83
2018-12-04T06:45:39.614Z,9.90
2018-12-04T06:48:08.168Z,11.83
2018-12-04T06:50:36.617Z,10.00
2018-12-04T06:53:05.120Z,10.93
2018-12-04T06:55:33.588Z,10.63
2018-12-04T06:58:02.035Z,11.73
2018-12-04T07:00:30.654Z,10.00
2018-12-04T07:02:59.136Z,9.97
2018-12-04T07:05:27.816Z,9.97
2018-12-04T07:07:56.364Z,11.10
2018-12-04T07:10:24.936Z,11.27
2018-12-04T07:12:53.431Z,15.00
2018-12-04T07:15:22.192Z,13.40
2018-12-04T07:17:50.643Z,11.97
2018-12-04T07:20:19.206Z,10.83
2018-12-04T07:22:48.149Z,10.80
2018-12-04T07:25:16.661Z,9.47
2018-12-04T07:27:45.235Z,12.00
2018-12-04T07:30:13.862Z,11.73
2018-12-04T07:32:42.335Z,11.50
2018-12-04T07:35:10.900Z,12.83
2018-12-04T07:37:39.406Z,11.90
2018-12-04T07:40:08.429Z,11.50
2018-12-04T07:42:36.911Z,9.40
2018-12-04T07:45:06.278Z,10.07
2018-12-04T07:47:34.779Z,9.73
2018-12-04T07:50:03.579Z,11.07
2018-12-04T07:52:32.073Z,9.47
2018-12-04T07:55:00.602Z,9.97
2018-12-04T07:57:29.261Z,8.80
2018-12-04T07:59:57.796Z,7.83
2018-12-04T08:02:26.332Z,7.57
2018-12-04T08:04:54.883Z,6.40
2018-12-04T08:07:23.423Z,5.30
2018-12-04T08:09:51.907Z,6.67
2018-12-04T08:12:20.383Z,5.30
2018-12-04T08:14:48.848Z,8.57
2018-12-04T08:17:17.389Z,6.03
2018-12-04T08:19:45.880Z,5.93
2018-12-04T08:22:14.416Z,5.00
2018-12-04T08:24:42.937Z,6.30
2018-12-04T08:27:14.248Z,3.90
2018-12-04T08:29:42.725Z,6.17
2018-12-04T08:32:11.282Z,4.93
2018-12-04T08:34:39.837Z,7.30
2018-12-04T08:37:08.358Z,5.20
2018-12-04T08:39:36.846Z,4.90
2018-12-04T08:42:05.339Z,4.37
2018-12-04T08:44:33.821Z,3.73
2018-12-04T08:47:02.289Z,4.00
2018-12-04T08:49:30.840Z,4.20
2018-12-04T08:51:59.380Z,4.40
2018-12-04T08:54:27.908Z,4.20
2018-12-04T08:56:56.396Z,5.10
2018-12-04T08:59:25.133Z,4.87
2018-12-04T09:01:53.560Z,4.83
2018-12-04T09:04:22.082Z,5.23
2018-12-04T09:06:50.552Z,5.13
2018-12-04T09:09:19.268Z,5.70
2018-12-04T09:11:47.797Z,5.10
2018-12-04T09:14:16.330Z,5.70
2018-12-04T09:16:44.956Z,5.90
2018-12-04T09:19:13.508Z,6.70
2018-12-04T09:21:42.129Z,5.97
2018-12-04T09:24:10.750Z,5.90
2018-12-04T09:26:39.396Z,5.97
2018-12-04T09:29:08.240Z,6.50
2018-12-04T09:31:36.806Z,5.83
2018-12-04T09:34:05.431Z,6.80
2018-12-04T09:36:33.986Z,7.70
2018-12-04T09:39:02.548Z,6.83
2018-12-04T09:41:31.140Z,6.57
2018-12-04T09:43:59.625Z,6.77
2018-12-04T09:46:28.237Z,6.53
2018-12-04T09:48:56.845Z,6.60
2018-12-04T09:51:25.339Z,5.83
2018-12-04T09:53:53.927Z,5.73
2018-12-04T09:56:22.517Z,6.20
2018-12-04T09:58:51.046Z,5.93
2018-12-04T10:01:19.517Z,6.00
2018-12-04T10:03:48.163Z,8.23
2018-12-04T10:06:16.725Z,5.80
2018-12-04T10:08:45.243Z,7.33
2018-12-04T10:11:13.712Z,7.63
2018-12-04T10:13:42.200Z,6.63
2018-12-04T10:16:10.768Z,7.17
2018-12-04T10:18:39.325Z,9.33
2018-12-04T10:21:07.961Z,6.30
2018-12-04T10:23:36.515Z,7.50
2018-12-04T10:26:05.044Z,7.47
2018-12-04T10:28:33.549Z,6.57
2018-12-04T10:31:07.537Z,7.77
2018-12-04T10:33:36.049Z,7.40
2018-12-04T10:36:04.568Z,7.33
2018-12-04T10:38:33.128Z,8.60
2018-12-04T10:41:01.636Z,6.30
2018-12-04T10:43:30.169Z,8.07
2018-12-04T10:45:58.822Z,6.47
2018-12-04T10:48:27.272Z,6.30
2018-12-04T10:50:55.791Z,5.27
2018-12-04T10:53:24.232Z,5.30
2018-12-04T10:55:52.772Z,4.67
2018-12-04T10:58:21.290Z,4.27
2018-12-04T11:00:57.939Z,4.27
2018-12-04T11:03:31.712Z,4.83
2018-12-04T11:06:00.221Z,6.03
2018-12-04T11:08:28.712Z,3.37
2018-12-04T11:10:57.280Z,3.50
2018-12-04T11:13:25.752Z,3.43
2018-12-04T11:15:54.307Z,3.87
2018-12-04T11:18:22.797Z,5.80
2018-12-04T11:20:51.385Z,4.47
2018-12-04T11:23:19.846Z,5.27
2018-12-04T11:25:48.375Z,5.67
2018-12-04T11:28:16.831Z,6.60
2018-12-04T11:30:45.317Z,6.07
2018-12-04T11:33:13.785Z,5.83
2018-12-04T11:35:42.287Z,4.80
2018-12-04T11:38:10.795Z,5.57
2018-12-04T11:40:39.324Z,6.70
2018-12-04T11:43:07.821Z,6.33
2018-12-04T11:45:36.365Z,1.87
2018-12-04T11:48:05.179Z,2.03
2018-12-04T11:50:33.647Z,2.10
2018-12-04T11:53:02.112Z,2.53
2018-12-04T11:55:30.632Z,2.23
2018-12-04T11:57:59.071Z,2.57
2018-12-04T12:00:35.610Z,3.30
2018-12-04T12:03:04.280Z,2.27
2018-12-04T12:05:32.780Z,2.00
2018-12-04T12:08:01.455Z,2.57
2018-12-04T12:10:30.091Z,1.63
2018-12-04T12:12:58.578Z,2.00
2018-12-04T12:15:27.072Z,1.77
2018-12-04T12:17:55.531Z,1.80
2018-12-04T12:20:24.005Z,2.03
2018-12-04T12:22:52.476Z,2.50
2018-12-04T12:25:21.070Z,1.10
2018-12-04T12:27:49.621Z,1.73
2018-12-04T12:30:18.095Z,1.53
2018-12-04T12:32:46.581Z,1.57
2018-12-04T12:35:15.070Z,2.50
2018-12-04T12:37:43.601Z,1.93
2018-12-04T12:40:12.121Z,1.70
2018-12-04T12:42:40.692Z,2.17
2018-12-04T12:45:10.645Z,1.30
2018-12-04T12:47:39.152Z,1.80
2018-12-04T12:50:09.525Z,1.93
2018-12-04T12:52:38.096Z,1.73
2018-12-04T12:55:06.868Z,3.23
2018-12-04T12:57:35.386Z,1.37
2018-12-04T13:00:05.754Z,2.23
2018-12-04T13:02:34.248Z,2.50
2018-12-04T13:05:02.733Z,2.00
2018-12-04T13:07:31.233Z,2.10
2018-12-04T13:09:59.675Z,2.20
2018-12-04T13:12:28.154Z,2.70
2018-12-04T13:14:56.607Z,2.80
2018-12-04T13:17:25.089Z,5.53
2018-12-04T13:19:53.583Z,2.80
2018-12-04T13:22:22.218Z,3.20
2018-12-04T13:24:50.710Z,3.60
2018-12-04T13:27:19.191Z,2.67
2018-12-04T13:29:47.732Z,5.83
2018-12-04T13:32:16.356Z,3.40
2018-12-04T13:34:44.892Z,3.43
2018-12-04T13:37:13.442Z,3.30
2018-12-04T13:39:44.962Z,3.30
2018-12-04T13:42:14.036Z,3.27
2018-12-04T13:44:42.630Z,3.37
2018-12-04T13:47:11.153Z,2.87
2018-12-04T13:49:39.634Z,2.93
2018-12-04T13:52:08.421Z,3.17
2018-12-04T13:54:36.906Z,2.80
2018-12-04T13:57:05.554Z,4.33
2018-12-04T13:59:34.144Z,2.80
2018-12-04T14:02:02.681Z,3.20
2018-12-04T14:04:31.638Z,2.50
2018-12-04T14:07:00.413Z,2.60
2018-12-04T14:09:28.991Z,3.30
2018-12-04T14:11:57.536Z,2.60
2018-12-04T14:14:26.042Z,2.90
2018-12-04T14:16:54.631Z,3.73
2018-12-04T14:19:23.147Z,3.23
2018-12-04T14:21:51.723Z,2.73
2018-12-04T14:24:20.275Z,2.83
2018-12-04T14:26:48.850Z,2.77
2018-12-04T14:29:17.418Z,5.40
2018-12-04T14:31:45.858Z,2.67
2018-12-04T14:34:14.344Z,2.40
2018-12-04T14:36:42.892Z,3.10
2018-12-04T14:39:11.444Z,3.13
2018-12-04T14:41:39.956Z,2.97
2018-12-04T14:44:08.443Z,2.87
2018-12-04T14:46:36.992Z,4.33
2018-12-04T14:49:05.550Z,5.00
2018-12-04T14:51:34.072Z,6.67
2018-12-04T14:54:02.673Z,5.57
2018-12-04T14:56:31.152Z,5.70
2018-12-04T14:58:59.636Z,3.93
2018-12-04T15:01:28.185Z,5.53
2018-12-04T15:03:56.710Z,6.03
2018-12-04T15:06:25.168Z,4.80
2018-12-04T15:08:53.717Z,4.33
2018-12-04T15:11:22.311Z,5.80
2018-12-04T15:13:50.856Z,5.30
2018-12-04T15:16:19.393Z,4.90
2018-12-04T15:18:47.964Z,6.17
2018-12-04T15:21:16.489Z,5.70
2018-12-04T15:23:45.109Z,6.53
2018-12-04T15:26:13.772Z,5.67
2018-12-04T15:28:42.211Z,7.50
2018-12-04T15:31:10.771Z,6.53
2018-12-04T15:33:39.396Z,6.80
2018-12-04T15:36:07.867Z,6.33
2018-12-04T15:38:36.313Z,6.40
2018-12-04T15:41:04.809Z,5.87
2018-12-04T15:43:33.347Z,7.30
2018-12-04T15:46:01.864Z,6.10
2018-12-04T15:48:30.423Z,6.77
2018-12-04T15:51:00.061Z,6.53
2018-12-04T15:53:28.716Z,5.47
2018-12-04T15:55:57.284Z,6.50
2018-12-04T15:58:25.816Z,6.10
2018-12-04T16:00:54.312Z,5.40
2018-12-04T16:03:22.769Z,6.60
2018-12-04T16:05:51.209Z,8.50
2018-12-04T16:08:19.648Z,7.53
2018-12-04T16:10:48.139Z,7.70
2018-12-04T16:13:16.796Z,9.77
2018-12-04T16:15:45.444Z,11.53
2018-12-04T16:18:13.961Z,7.20
2018-12-04T16:20:42.443Z,7.20
2018-12-04T16:23:10.965Z,7.90
2018-12-04T16:25:39.400Z,8.37
2018-12-04T16:28:07.853Z,7.43
2018-12-04T16:30:36.381Z,9.10
2018-12-04T16:33:04.861Z,8.43
2018-12-04T16:35:33.452Z,8.43
2018-12-04T16:38:01.969Z,9.40
2018-12-04T16:40:30.523Z,8.23
2018-12-04T16:42:59.023Z,8.40
2018-12-04T16:45:27.658Z,8.07
2018-12-04T16:47:56.112Z,8.33
2018-12-04T16:50:24.752Z,8.90
2018-12-04T16:52:53.208Z,8.83
2018-12-04T16:55:21.794Z,9.13
2018-12-04T16:57:50.355Z,9.83
2018-12-04T17:00:18.846Z,10.30
2018-12-04T17:02:47.609Z,9.57
2018-12-04T17:05:16.081Z,9.20
2018-12-04T17:07:44.684Z,8.60
2018-12-04T17:10:13.150Z,8.70
2018-12-04T17:12:41.820Z,10.10
2018-12-04T17:15:10.755Z,8.73
2018-12-04T17:17:39.240Z,11.27
2018-12-04T17:20:08.856Z,8.43
2018-12-04T17:22:37.320Z,9.13
2018-12-04T17:25:05.896Z,9.97
2018-12-04T17:27:34.332Z,9.70
2018-12-04T17:30:03.107Z,10.13
2018-12-04T17:32:31.568Z,8.80
2018-12-04T17:35:00.144Z,9.50
2018-12-04T17:37:28.636Z,10.30
2018-12-04T17:39:57.138Z,9.50
2018-12-04T17:42:25.655Z,10.60
2018-12-04T17:44:54.132Z,10.13
2018-12-04T17:47:22.678Z,9.80
2018-12-04T17:49:51.217Z,9.47
2018-12-04T17:52:19.861Z,9.80
2018-12-04T17:54:48.335Z,10.10
2018-12-04T17:57:16.748Z,10.50
2018-12-04T17:59:45.254Z,9.17
2018-12-04T18:02:13.691Z,10.73
2018-12-04T18:04:42.212Z,11.03
2018-12-04T18:07:10.886Z,12.30
2018-12-04T18:09:39.456Z,10.80
2018-12-04T18:12:08.065Z,10.43
2018-12-04T18:14:36.577Z,11.70
2018-12-04T18:17:05.168Z,15.13
2018-12-04T18:19:33.680Z,11.50
2018-12-04T18:22:02.573Z,12.80
2018-12-04T18:24:31.080Z,12.83
2018-12-04T18:26:59.557Z,13.30
2018-12-04T18:29:28.079Z,12.53
2018-12-04T18:31:56.555Z,13.40
2018-12-04T18:34:25.051Z,13.83
2018-12-04T18:36:53.564Z,13.93
2018-12-04T18:39:22.140Z,12.50
2018-12-04T18:41:50.745Z,12.53
2018-12-04T18:44:20.047Z,11.70
2018-12-04T18:46:48.500Z,14.00
2018-12-04T18:49:16.941Z,12.73
2018-12-04T18:51:45.769Z,13.57
2018-12-04T18:54:14.224Z,13.30
2018-12-04T18:56:42.692Z,15.60
2018-12-04T18:59:11.247Z,12.13
2018-12-04T19:01:39.687Z,11.23
2018-12-04T19:04:08.348Z,10.97
2018-12-04T19:06:36.788Z,12.30
2018-12-04T19:09:07.643Z,10.50
2018-12-04T19:11:36.126Z,12.00
2018-12-04T19:14:04.733Z,12.80
2018-12-04T19:16:33.259Z,11.13
2018-12-04T19:19:01.808Z,11.43
2018-12-04T19:21:30.256Z,12.77
2018-12-04T19:23:58.726Z,13.23
2018-12-04T19:26:27.143Z,10.77
2018-12-04T19:28:55.584Z,11.47
2018-12-04T19:31:24.060Z,12.40
2018-12-04T19:33:52.659Z,10.10
2018-12-04T19:36:21.255Z,10.93
2018-12-04T19:38:49.701Z,10.90
2018-12-04T19:41:18.161Z,11.30
2018-12-04T19:43:46.608Z,10.67
2018-12-04T19:46:15.101Z,11.90
2018-12-04T19:48:43.562Z,11.27
2018-12-04T19:51:12.940Z,9.83
2018-12-04T19:53:41.498Z,11.40
2018-12-04T19:56:09.950Z,10.37
2018-12-04T19:58:38.698Z,9.33
2018-12-04T20:01:07.236Z,10.33
2018-12-04T20:03:35.725Z,11.10
2018-12-04T20:06:04.424Z,11.33
2018-12-04T20:08:55.290Z,12.00
2018-12-04T20:11:23.904Z,13.10
2018-12-04T20:13:52.380Z,12.40
2018-12-04T20:16:21.003Z,12.90
2018-12-04T20:18:49.518Z,12.70
2018-12-04T20:21:18.114Z,13.30
2018-12-04T20:23:47.675Z,12.53
2018-12-04T20:26:16.145Z,11.70
2018-12-04T20:28:44.653Z,13.77
2018-12-04T20:31:13.182Z,13.43
2018-12-04T20:33:41.698Z,11.13
2018-12-04T20:36:10.201Z,12.33
2018-12-04T20:38:39.195Z,12.27
2018-12-04T20:41:07.844Z,12.20
2018-12-04T20:43:36.372Z,11.40
2018-12-04T20:46:06.057Z,13.37
2018-12-04T20:48:34.964Z,13.90
2018-12-04T20:51:03.628Z,11.93
2018-12-04T20:53:32.201Z,11.77
2018-12-04T20:56:00.732Z,11.27
2018-12-04T20:58:29.213Z,11.67
2018-12-04T21:00:57.796Z,12.57
2018-12-04T21:03:26.329Z,13.10
2018-12-04T21:05:54.819Z,11.47
2018-12-04T21:08:23.368Z,11.90
2018-12-04T21:10:51.907Z,11.70
2018-12-04T21:13:20.472Z,10.37
2018-12-04T21:15:48.943Z,9.63
2018-12-04T21:18:17.399Z,10.27
2018-12-04T21:20:45.999Z,10.50
2018-12-04T21:23:14.603Z,12.00
2018-12-04T21:25:43.041Z,11.13
2018-12-04T21:28:17.109Z,11.03
2018-12-04T21:30:50.860Z,11.03
2018-12-04T21:33:24.564Z,9.50
2018-12-04T21:35:58.534Z,9.47
2018-12-04T21:38:32.253Z,10.10
2018-12-04T21:41:05.222Z,10.00
2018-12-04T21:43:38.997Z,9.90
2018-12-04T21:46:12.937Z,9.70
2018-12-04T21:48:41.372Z,10.87
2018-12-04T21:51:09.856Z,9.13
2018-12-04T21:53:38.403Z,9.50
2018-12-04T21:56:07.179Z,8.87
2018-12-04T21:58:35.678Z,8.30
2018-12-04T22:01:04.230Z,7.90
2018-12-04T22:03:32.756Z,10.53
2018-12-04T22:06:01.878Z,8.73
2018-12-04T22:08:30.467Z,8.60
2018-12-04T22:10:59.152Z,10.27
2018-12-04T22:13:27.697Z,9.47
2018-12-04T22:15:56.173Z,10.03
2018-12-04T22:18:24.700Z,8.50
2018-12-04T22:20:53.193Z,8.00
2018-12-04T22:23:21.693Z,7.33
2018-12-04T22:25:50.196Z,9.10
2018-12-04T22:28:18.713Z,9.03
2018-12-04T22:30:47.185Z,9.10
2018-12-04T22:33:15.708Z,8.27
2018-12-04T22:35:44.268Z,8.70
2018-12-04T22:38:12.729Z,8.63
2018-12-04T22:40:41.185Z,8.83
2018-12-04T22:43:09.691Z,9.83
2018-12-04T22:45:38.188Z,9.07
2018-12-04T22:48:06.736Z,9.40
2018-12-04T22:50:35.308Z,8.80
2018-12-04T22:53:03.861Z,8.87
2018-12-04T22:55:32.341Z,7.33
2018-12-04T22:58:00.820Z,6.80
2018-12-04T23:00:38.770Z,9.53
2018-12-04T23:03:07.342Z,8.80
2018-12-04T23:05:35.984Z,7.77
2018-12-04T23:08:04.613Z,10.17
2018-12-04T23:10:33.150Z,11.20
2018-12-04T23:13:01.595Z,9.13
2018-12-04T23:15:30.052Z,10.90
2018-12-04T23:17:58.510Z,9.77
2018-12-04T23:20:27.002Z,9.40
2018-12-04T23:22:58.430Z,10.90
2018-12-04T23:25:26.987Z,10.80
2018-12-04T23:27:55.444Z,9.00
2018-12-04T23:30:23.943Z,8.27
2018-12-04T23:32:52.376Z,9.00
2018-12-04T23:35:20.822Z,8.20
2018-12-04T23:37:49.268Z,8.50
2018-12-04T23:40:17.723Z,9.13
2018-12-04T23:42:46.190Z,8.77
2018-12-04T23:45:14.652Z,7.57
2018-12-04T23:47:43.100Z,8.23
2018-12-04T23:50:11.582Z,8.23
2018-12-04T23:52:40.059Z,7.57
2018-12-04T23:55:08.520Z,7.40
2018-12-04T23:57:37.007Z,6.73
